createdAt,value
2023-05-16T00:00:15.272Z,97590.75
2023-05-16T00:02:41.876Z,97592.56
2023-05-16T00:05:09.686Z,97597.59
2023-05-16T00:07:36.224Z,97599.13
2023-05-16T00:10:02.620Z,97599.88
2023-05-16T00:12:28.923Z,97596.91
2023-05-16T00:14:55.369Z,97604.59
2023-05-16T00:17:22.199Z,97598.16
2023-05-16T00:19:48.842Z,97597.59
2023-05-16T00:22:16.461Z,97599.16
2023-05-16T00:24:42.990Z,97596.97
2023-05-16T00:27:09.328Z,97603.03
2023-05-16T00:29:36.280Z,97597.41
2023-05-16T00:32:02.767Z,97608.56
2023-05-16T00:34:29.260Z,97605.84
2023-05-16T00:36:56.511Z,97610.03
2023-05-16T00:39:23.100Z,97610.53
2023-05-16T00:41:50.428Z,97610.22
2023-05-16T00:44:16.695Z,97606.19
2023-05-16T00:46:46.143Z,97607.47
2023-05-16T00:49:12.546Z,97608.78
2023-05-16T00:51:38.919Z,97606.06
2023-05-16T00:54:05.518Z,97607.34
2023-05-16T00:56:32.397Z,97604.09
2023-05-16T00:58:58.802Z,97608.09
2023-05-16T01:01:28.207Z,97605.09
2023-05-16T01:03:54.986Z,97600.25
2023-05-16T01:06:24.436Z,97610.56
2023-05-16T01:08:52.479Z,97601.44
2023-05-16T01:11:18.780Z,97608.06
2023-05-16T01:13:45.146Z,97607.28
2023-05-16T01:16:12.262Z,97612.81
2023-05-16T01:18:38.942Z,97615.97
2023-05-16T01:21:05.985Z,97620.72
2023-05-16T01:23:32.455Z,97623.88
2023-05-16T01:25:58.779Z,97633.97
2023-05-16T01:28:27.566Z,97635.53
2023-05-16T01:30:53.972Z,97628.00
2023-05-16T01:33:20.317Z,97623.16
2023-05-16T01:35:47.633Z,97624.69
2023-05-16T01:38:21.010Z,97627.03
2023-05-16T01:40:48.027Z,97625.66
2023-05-16T01:43:15.728Z,97631.44
2023-05-16T01:45:42.229Z,97637.84
2023-05-16T01:48:09.258Z,97645.50
2023-05-16T01:50:37.013Z,97636.16
2023-05-16T01:53:04.234Z,97644.59
2023-05-16T01:55:30.862Z,97638.94
2023-05-16T01:57:57.141Z,97641.03
2023-05-16T02:00:23.458Z,97639.69
2023-05-16T02:02:50.065Z,97643.03
2023-05-16T02:05:26.069Z,97646.19
2023-05-16T02:07:54.937Z,97642.16
2023-05-16T02:10:21.238Z,97637.28
2023-05-16T02:12:47.516Z,97643.91
2023-05-16T02:15:13.812Z,97647.84
2023-05-16T02:17:40.272Z,97652.59
2023-05-16T02:20:06.612Z,97650.41
2023-05-16T02:22:33.024Z,97652.50
2023-05-16T02:25:05.567Z,97649.28
2023-05-16T02:27:31.826Z,97647.09
2023-05-16T02:29:58.265Z,97650.25
2023-05-16T02:32:24.591Z,97646.16
2023-05-16T02:34:50.970Z,97649.06
2023-05-16T02:37:17.286Z,97656.47
2023-05-16T02:39:44.177Z,97658.53
2023-05-16T02:42:11.920Z,97660.88
2023-05-16T02:44:38.433Z,97651.53
2023-05-16T02:47:04.876Z,97665.06
2023-05-16T02:49:31.512Z,97662.63
2023-05-16T02:51:57.796Z,97671.97
2023-05-16T02:54:24.263Z,97669.78
2023-05-16T02:56:50.690Z,97679.28
2023-05-16T02:59:17.045Z,97679.41
2023-05-16T03:01:43.456Z,97683.94
2023-05-16T03:04:10.013Z,97693.22
2023-05-16T03:06:36.379Z,97691.31
2023-05-16T03:09:02.755Z,97682.19
2023-05-16T03:11:32.214Z,97687.06
2023-05-16T03:14:00.796Z,97685.06
2023-05-16T03:16:28.098Z,97687.84
2023-05-16T03:18:54.786Z,97687.66
2023-05-16T03:21:21.103Z,97690.97
2023-05-16T03:23:47.438Z,97694.50
2023-05-16T03:26:13.887Z,97707.91
2023-05-16T03:28:40.227Z,97706.94
2023-05-16T03:31:12.898Z,97713.16
2023-05-16T03:33:39.386Z,97715.06
2023-05-16T03:36:05.798Z,97713.50
2023-05-16T03:38:32.163Z,97714.69
2023-05-16T03:40:58.432Z,97715.22
2023-05-16T03:43:24.756Z,97719.81
2023-05-16T03:45:51.153Z,97723.84
2023-05-16T03:48:17.582Z,97727.63
2023-05-16T03:50:44.061Z,97727.13
2023-05-16T03:53:10.373Z,97728.25
2023-05-16T03:55:36.854Z,97735.75
2023-05-16T03:58:03.147Z,97733.63
2023-05-16T04:00:29.464Z,97737.69
2023-05-16T04:02:55.807Z,97734.50
2023-05-16T04:05:22.273Z,97743.88
2023-05-16T04:07:48.813Z,97741.50
2023-05-16T04:10:15.220Z,97745.00
2023-05-16T04:12:41.480Z,97747.41
2023-05-16T04:15:07.786Z,97751.44
2023-05-16T04:17:34.175Z,97752.00
2023-05-16T04:20:00.576Z,97750.94
2023-05-16T04:22:26.898Z,97754.16
2023-05-16T04:24:53.251Z,97758.22
2023-05-16T04:27:19.574Z,97748.31
2023-05-16T04:29:46.189Z,97758.53
2023-05-16T04:32:12.502Z,97759.63
2023-05-16T04:34:40.115Z,97757.50
2023-05-16T04:37:06.796Z,97758.63
2023-05-16T04:39:33.091Z,97761.84
2023-05-16T04:41:59.448Z,97758.69
2023-05-16T04:44:25.837Z,97760.84
2023-05-16T04:46:52.209Z,97768.34
2023-05-16T04:49:18.729Z,97768.63
2023-05-16T04:51:45.398Z,97776.97
2023-05-16T04:54:11.721Z,97773.00
2023-05-16T04:56:38.007Z,97777.81
2023-05-16T04:59:04.367Z,97785.38
2023-05-16T05:01:30.758Z,97788.38
2023-05-16T05:03:57.088Z,97788.09
2023-05-16T05:06:23.453Z,97785.44
2023-05-16T05:08:50.283Z,97792.38
2023-05-16T05:11:16.566Z,97797.47
2023-05-16T05:13:42.883Z,97802.56
2023-05-16T05:16:09.222Z,97806.59
2023-05-16T05:18:35.638Z,97801.81
2023-05-16T05:21:02.360Z,97805.84
2023-05-16T05:23:28.806Z,97813.38
2023-05-16T05:25:55.271Z,97810.44
2023-05-16T05:28:21.549Z,97823.28
2023-05-16T05:30:47.844Z,97826.50
2023-05-16T05:33:14.361Z,97823.84
2023-05-16T05:35:40.696Z,97831.59
2023-05-16T05:38:07.024Z,97826.25
2023-05-16T05:40:33.342Z,97829.44
2023-05-16T05:42:59.592Z,97833.75
2023-05-16T05:45:26.125Z,97831.66
2023-05-16T05:47:52.606Z,97834.06
2023-05-16T05:50:18.977Z,97832.22
2023-05-16T05:52:45.326Z,97834.06
2023-05-16T05:55:11.640Z,97850.09
2023-05-16T05:57:38.244Z,97859.75
2023-05-16T06:00:04.598Z,97859.75
2023-05-16T06:02:31.110Z,97854.41
2023-05-16T06:04:57.586Z,97864.03
2023-05-16T06:07:24.109Z,97866.44
2023-05-16T06:09:50.651Z,97860.84
2023-05-16T06:12:16.915Z,97862.72
2023-05-16T06:14:43.537Z,97866.75
2023-05-16T06:17:10.176Z,97869.97
2023-05-16T06:19:36.628Z,97873.22
2023-05-16T06:22:03.000Z,97873.22
2023-05-16T06:24:29.583Z,97880.16
2023-05-16T06:26:56.045Z,97882.59
2023-05-16T06:29:26.850Z,97887.69
2023-05-16T06:31:53.284Z,97888.22
2023-05-16T06:34:19.688Z,97893.09
2023-05-16T06:36:45.948Z,97895.50
2023-05-16T06:39:14.397Z,97892.56
2023-05-16T06:41:40.674Z,97902.22
2023-05-16T06:44:06.965Z,97901.97
2023-05-16T06:46:33.371Z,97905.19
2023-05-16T06:48:59.723Z,97914.03
2023-05-16T06:51:26.050Z,97910.53
2023-05-16T06:53:52.369Z,97916.69
2023-05-16T06:56:18.648Z,97921.22
2023-05-16T06:58:44.936Z,97922.84
2023-05-16T07:01:11.266Z,97933.03
2023-05-16T07:03:37.706Z,97931.75
2023-05-16T07:06:04.155Z,97928.00
2023-05-16T07:08:30.475Z,97925.88
2023-05-16T07:10:56.795Z,97925.06
2023-05-16T07:13:23.105Z,97925.06
2023-05-16T07:15:49.391Z,97923.47
2023-05-16T07:18:15.730Z,97935.75
2023-05-16T07:20:42.198Z,97928.81
2023-05-16T07:23:08.516Z,97936.59
2023-05-16T07:25:34.828Z,97938.19
2023-05-16T07:28:01.538Z,97937.13
2023-05-16T07:30:28.357Z,97930.72
2023-05-16T07:32:54.773Z,97940.13
2023-05-16T07:35:21.109Z,97936.66
2023-05-16T07:37:50.038Z,97937.56
2023-05-16T07:40:19.941Z,97936.78
2023-05-16T07:42:46.975Z,97935.47
2023-05-16T07:45:13.330Z,97938.72
2023-05-16T07:47:39.910Z,97942.47
2023-05-16T07:50:06.290Z,97942.78
2023-05-16T07:52:32.611Z,97944.69
2023-05-16T07:54:59.072Z,97944.75
2023-05-16T07:57:25.485Z,97949.56
2023-05-16T07:59:52.382Z,97952.53
2023-05-16T08:02:19.058Z,97959.53
2023-05-16T08:04:45.416Z,97964.91
2023-05-16T08:07:11.734Z,97969.50
2023-05-16T08:09:38.105Z,97969.53
2023-05-16T08:12:04.506Z,97975.22
2023-05-16T08:14:30.994Z,97978.19
2023-05-16T08:16:57.307Z,97986.22
2023-05-16T08:19:26.710Z,97983.53
2023-05-16T08:21:53.209Z,97984.94
2023-05-16T08:24:19.548Z,97985.53
2023-05-16T08:26:45.964Z,97985.00
2023-05-16T08:29:12.670Z,97982.88
2023-05-16T08:31:39.113Z,97981.06
2023-05-16T08:34:05.477Z,97988.25
2023-05-16T08:36:31.803Z,97982.88
2023-05-16T08:38:58.104Z,97988.25
2023-05-16T08:41:24.682Z,97991.50
2023-05-16T08:43:51.146Z,98000.09
2023-05-16T08:46:17.578Z,97994.22
2023-05-16T08:48:43.873Z,97995.59
2023-05-16T08:51:10.251Z,98001.78
2023-05-16T08:53:36.599Z,97996.44
2023-05-16T08:56:02.918Z,97997.03
2023-05-16T08:58:29.631Z,97998.66
2023-05-16T09:00:56.125Z,98005.41
2023-05-16T09:03:22.708Z,98005.44
2023-05-16T09:05:49.156Z,98018.91
2023-05-16T09:08:18.630Z,98013.41
2023-05-16T09:10:44.990Z,98011.25
2023-05-16T09:13:15.262Z,98005.91
2023-05-16T09:15:41.576Z,98006.97
2023-05-16T09:18:07.908Z,97997.59
2023-05-16T09:20:34.270Z,97995.72
2023-05-16T09:23:00.965Z,97999.19
2023-05-16T09:25:30.951Z,97995.44
2023-05-16T09:30:48.328Z,98001.09
2023-05-16T09:33:14.684Z,97999.47
2023-05-16T09:35:45.281Z,98002.16
2023-05-16T09:38:12.167Z,98011.84
2023-05-16T09:40:38.440Z,98007.03
2023-05-16T09:43:05.083Z,98006.50
2023-05-16T09:45:31.434Z,98004.38
2023-05-16T09:47:57.907Z,97995.78
2023-05-16T09:50:24.299Z,97992.59
2023-05-16T09:52:50.913Z,97995.28
2023-05-16T09:55:17.333Z,97988.53
2023-05-16T09:57:43.736Z,97989.91
2023-05-16T10:00:10.122Z,97995.78
2023-05-16T10:02:36.700Z,97997.69
2023-05-16T10:05:06.164Z,97989.63
2023-05-16T10:07:32.558Z,97984.53
2023-05-16T10:09:58.880Z,97984.25
2023-05-16T10:12:25.188Z,97985.59
2023-05-16T10:14:51.682Z,97979.44
2023-05-16T10:17:18.617Z,97989.34
2023-05-16T10:19:45.037Z,97987.22
2023-05-16T10:22:11.472Z,97989.38
2023-05-16T10:24:37.763Z,97982.94
2023-05-16T10:27:04.051Z,97980.00
2023-05-16T10:29:35.165Z,97983.50
2023-05-16T10:32:06.732Z,97978.13
2023-05-16T10:34:33.112Z,97989.63
2023-05-16T10:36:59.501Z,97993.97
2023-05-16T10:39:26.004Z,98004.44
2023-05-16T10:41:52.409Z,97992.06
2023-05-16T10:44:18.720Z,98000.66
2023-05-16T10:46:45.020Z,97995.59
2023-05-16T10:49:11.385Z,97995.59
2023-05-16T10:51:37.737Z,97988.84
2023-05-16T10:54:04.052Z,97982.66
2023-05-16T10:56:30.344Z,97990.47
2023-05-16T10:58:56.693Z,97999.31
2023-05-16T11:01:23.114Z,97992.31
2023-05-16T11:03:49.626Z,97989.91
2023-05-16T11:06:17.083Z,97988.31
2023-05-16T11:08:44.639Z,98000.66
2023-05-16T11:11:10.992Z,98008.97
2023-05-16T11:13:37.350Z,98004.72
2023-05-16T11:16:03.632Z,98006.09
2023-05-16T11:18:30.072Z,98006.09
2023-05-16T11:20:56.448Z,98013.06
2023-05-16T11:23:22.968Z,98001.50
2023-05-16T11:25:49.326Z,97995.84
2023-05-16T11:28:15.812Z,97996.94
2023-05-16T11:30:42.086Z,98001.50
2023-05-16T11:33:08.442Z,97995.84
2023-05-16T11:35:34.783Z,97999.34
2023-05-16T11:38:01.172Z,97995.84
2023-05-16T11:40:27.453Z,97988.06
2023-05-16T11:42:54.066Z,98001.22
2023-05-16T11:45:20.463Z,97988.88
2023-05-16T11:47:47.000Z,97982.97
2023-05-16T11:50:13.343Z,97991.03
2023-05-16T11:52:39.724Z,97982.44
2023-05-16T11:55:06.044Z,97990.50
2023-05-16T11:57:32.433Z,97987.81
2023-05-16T11:59:58.838Z,97995.59
2023-05-16T12:02:25.276Z,98000.97
2023-05-16T12:04:51.707Z,97995.34
2023-05-16T12:07:18.491Z,97997.75
2023-05-16T12:09:44.813Z,97999.06
2023-05-16T12:12:13.928Z,97997.47
2023-05-16T12:14:40.259Z,97995.34
2023-05-16T12:17:06.702Z,97992.66
2023-05-16T12:19:33.183Z,97988.09
2023-05-16T12:21:59.521Z,97980.28
2023-05-16T12:24:26.692Z,97991.03
2023-05-16T12:26:54.067Z,97992.09
2023-05-16T12:29:21.501Z,97990.78
2023-05-16T12:31:47.895Z,97991.03
2023-05-16T12:34:14.541Z,97999.34
2023-05-16T12:36:40.879Z,97995.88
2023-05-16T12:42:24.800Z,97998.56
2023-05-16T12:44:51.085Z,97993.19
2023-05-16T12:47:17.368Z,97993.19
2023-05-16T12:49:43.632Z,97989.13
2023-05-16T12:52:09.938Z,98003.13
2023-05-16T12:54:36.461Z,97992.09
2023-05-16T12:57:02.856Z,97998.00
2023-05-16T12:59:29.154Z,97995.31
2023-05-16T13:01:55.582Z,98005.81
2023-05-16T13:04:22.072Z,98002.84
2023-05-16T13:09:17.738Z,98010.09
2023-05-16T13:11:44.016Z,98011.97
2023-05-16T13:14:10.294Z,98007.69
2023-05-16T13:16:36.679Z,98013.06
2023-05-16T13:19:03.047Z,98008.47
2023-05-16T13:21:29.361Z,98010.91
2023-05-16T13:23:55.678Z,98013.34
2023-05-16T13:26:21.949Z,98018.72
2023-05-16T13:28:48.263Z,98016.53
2023-05-16T13:31:14.590Z,98014.38
2023-05-16T13:33:41.068Z,98017.88
2023-05-16T13:36:09.559Z,98010.91
2023-05-16T13:38:36.114Z,98018.97
2023-05-16T13:41:02.428Z,98007.41
2023-05-16T13:43:29.057Z,98006.59
2023-05-16T13:45:55.448Z,98008.22
2023-05-16T13:48:22.130Z,98016.28
2023-05-16T13:50:48.488Z,98003.94
2023-05-16T13:53:14.853Z,98003.38
2023-05-16T13:55:41.164Z,98000.97
2023-05-16T13:58:07.430Z,97999.09
2023-05-16T14:00:44.141Z,98002.06
2023-05-16T14:03:12.223Z,97996.69
2023-05-16T14:05:38.586Z,98003.66
2023-05-16T14:08:05.329Z,98006.63
2023-05-16T14:10:31.670Z,98006.88
2023-05-16T14:12:57.937Z,98009.84
2023-05-16T14:15:24.270Z,98012.53
2023-05-16T14:17:50.687Z,98012.53
2023-05-16T14:20:16.992Z,98007.69
2023-05-16T14:22:43.339Z,98005.78
2023-05-16T14:25:09.756Z,97996.13
2023-05-16T14:27:36.112Z,98003.94
2023-05-16T14:30:02.419Z,98004.22
2023-05-16T14:32:29.027Z,97992.94
2023-05-16T14:34:55.472Z,97994.25
2023-05-16T14:37:21.837Z,97985.66
2023-05-16T14:39:48.218Z,97989.69
2023-05-16T14:42:14.514Z,97988.31
2023-05-16T14:44:40.938Z,97988.84
2023-05-16T14:47:07.306Z,97986.44
2023-05-16T14:49:33.899Z,97996.91
2023-05-16T14:52:00.323Z,98001.19
2023-05-16T14:54:26.748Z,98000.13
2023-05-16T14:56:53.106Z,97997.97
2023-05-16T14:59:19.446Z,98008.44
2023-05-16T15:01:45.843Z,98017.03
2023-05-16T15:04:12.240Z,98015.16
2023-05-16T15:06:38.580Z,98022.97
2023-05-16T15:09:04.914Z,98029.16
2023-05-16T15:11:31.253Z,98026.72
2023-05-16T15:13:57.557Z,98033.97
2023-05-16T15:16:24.046Z,98038.25
2023-05-16T15:18:50.425Z,98044.44
2023-05-16T15:21:16.901Z,98050.38
2023-05-16T15:23:43.264Z,98050.13
2023-05-16T15:26:12.368Z,98042.59
2023-05-16T15:28:38.662Z,98054.94
2023-05-16T15:31:05.062Z,98053.88
2023-05-16T15:33:31.369Z,98049.56
2023-05-16T15:35:57.752Z,98057.63
2023-05-16T15:38:24.081Z,98059.25
2023-05-16T15:40:55.293Z,98062.75
2023-05-16T15:43:32.852Z,98063.56
2023-05-16T15:45:59.200Z,98060.31
2023-05-16T15:48:25.719Z,98054.94
2023-05-16T15:50:52.053Z,98056.56
2023-05-16T15:53:18.381Z,98061.13
2023-05-16T15:55:45.401Z,98055.50
2023-05-16T15:58:11.806Z,98055.75
2023-05-16T16:00:38.109Z,98058.69
2023-05-16T16:03:04.549Z,98065.13
2023-05-16T16:05:31.007Z,98070.47
2023-05-16T16:07:57.362Z,98073.16
2023-05-16T16:10:23.673Z,98069.69
2023-05-16T16:12:50.034Z,98074.25
2023-05-16T16:15:16.393Z,98063.78
2023-05-16T16:17:42.782Z,98072.09
2023-05-16T16:20:09.129Z,98067.00
2023-05-16T16:22:35.560Z,98068.34
2023-05-16T16:25:01.929Z,98070.47
2023-05-16T16:27:28.242Z,98067.25
2023-05-16T16:29:54.563Z,98059.47
2023-05-16T16:32:20.930Z,98061.59
2023-05-16T16:34:47.499Z,98051.94
2023-05-16T16:37:14.212Z,98053.81
2023-05-16T16:39:40.576Z,98059.44
2023-05-16T16:42:06.911Z,98054.88
2023-05-16T16:44:33.558Z,98064.81
2023-05-16T16:46:59.926Z,98061.31
2023-05-16T16:49:26.343Z,98066.16
2023-05-16T16:51:52.635Z,98071.25
2023-05-16T16:54:19.145Z,98068.56
2023-05-16T16:56:45.625Z,98072.03
2023-05-16T16:59:12.031Z,98069.91
2023-05-16T17:01:38.564Z,98069.34
2023-05-16T17:04:05.036Z,98072.31
2023-05-16T17:06:31.334Z,98071.78
2023-05-16T17:08:57.772Z,98076.59
2023-05-16T17:11:24.081Z,98076.84
2023-05-16T17:13:50.385Z,98092.41
2023-05-16T17:16:16.930Z,98081.16
2023-05-16T17:18:43.370Z,98084.91
2023-05-16T17:21:09.816Z,98087.84
2023-05-16T17:23:36.260Z,98074.97
2023-05-16T17:26:02.645Z,98081.38
2023-05-16T17:28:30.020Z,98083.28
2023-05-16T17:30:56.457Z,98082.72
2023-05-16T17:33:22.799Z,98088.63
2023-05-16T17:35:49.125Z,98085.13
2023-05-16T17:38:15.623Z,98091.81
2023-05-16T17:40:42.163Z,98092.34
2023-05-16T17:43:08.517Z,98098.00
2023-05-16T17:45:34.890Z,98095.31
2023-05-16T17:48:01.212Z,98092.06
2023-05-16T17:50:27.641Z,98092.34
2023-05-16T17:52:54.004Z,98091.78
2023-05-16T17:55:20.416Z,98093.09
2023-05-16T17:57:47.224Z,98091.75
2023-05-16T18:00:13.627Z,98091.22
2023-05-16T18:02:39.984Z,98099.53
2023-05-16T18:05:06.521Z,98086.66
2023-05-16T18:07:32.947Z,98097.63
2023-05-16T18:09:59.379Z,98100.56
2023-05-16T18:12:25.748Z,98100.25
2023-05-16T18:14:52.491Z,98102.41
2023-05-16T18:17:18.852Z,98104.53
2023-05-16T18:19:45.273Z,98102.34
2023-05-16T18:22:11.648Z,98103.44
2023-05-16T18:24:38.031Z,98098.59
2023-05-16T18:27:04.397Z,98103.41
2023-05-16T18:29:30.710Z,98102.84
2023-05-16T18:31:57.024Z,98099.63
2023-05-16T18:34:23.346Z,98104.69
2023-05-16T18:36:49.697Z,98104.13
2023-05-16T18:39:19.493Z,98109.75
2023-05-16T18:41:45.853Z,98110.03
2023-05-16T18:44:12.265Z,98106.00
2023-05-16T18:46:38.583Z,98107.56
2023-05-16T18:49:05.053Z,98111.56
2023-05-16T18:51:31.527Z,98109.41
2023-05-16T18:53:57.908Z,98124.94
2023-05-16T18:56:24.280Z,98119.84
2023-05-16T18:58:50.762Z,98128.41
2023-05-16T19:01:17.629Z,98127.84
2023-05-16T19:03:44.089Z,98127.28
2023-05-16T19:06:10.599Z,98130.50
2023-05-16T19:08:47.526Z,98136.09
2023-05-16T19:11:14.588Z,98133.91
2023-05-16T19:13:40.941Z,98138.75
2023-05-16T19:16:07.372Z,98147.84
2023-05-16T19:18:33.898Z,98150.22
2023-05-16T19:21:00.680Z,98148.88
2023-05-16T19:23:26.978Z,98151.78
2023-05-16T19:25:53.308Z,98160.06
2023-05-16T19:28:19.634Z,98161.41
2023-05-16T19:30:45.966Z,98162.72
2023-05-16T19:33:12.555Z,98161.38
2023-05-16T19:35:38.912Z,98164.25
2023-05-16T19:38:05.521Z,98160.22
2023-05-16T19:40:32.028Z,98163.94
2023-05-16T19:42:58.430Z,98167.13
2023-05-16T19:45:24.963Z,98170.88
2023-05-16T19:47:51.356Z,98169.50
2023-05-16T19:50:17.754Z,98168.94
2023-05-16T19:52:44.233Z,98171.88
2023-05-16T19:55:10.907Z,98179.38
2023-05-16T19:57:37.257Z,98169.16
2023-05-16T20:00:03.626Z,98174.78
2023-05-16T20:02:30.079Z,98183.06
2023-05-16T20:04:56.584Z,98187.03
2023-05-16T20:07:26.110Z,98180.34
2023-05-16T20:09:52.596Z,98194.78
2023-05-16T20:12:18.966Z,98196.88
2023-05-16T20:14:45.333Z,98194.72
2023-05-16T20:17:11.675Z,98201.94
2023-05-16T20:19:38.194Z,98197.09
2023-05-16T20:22:04.598Z,98201.63
2023-05-16T20:24:30.929Z,98197.59
2023-05-16T20:26:57.255Z,98206.69
2023-05-16T20:29:23.588Z,98206.41
2023-05-16T20:31:50.158Z,98215.47
2023-05-16T20:34:16.629Z,98215.72
2023-05-16T20:36:42.973Z,98215.16
2023-05-16T20:39:09.308Z,98214.34
2023-05-16T20:41:35.649Z,98221.03
2023-05-16T20:44:02.378Z,98213.25
2023-05-16T20:46:28.646Z,98222.56
2023-05-16T20:48:55.020Z,98222.81
2023-05-16T20:51:21.576Z,98217.72
2023-05-16T20:53:47.875Z,98230.53
2023-05-16T20:56:14.207Z,98229.97
2023-05-16T20:58:40.779Z,98233.72
2023-05-16T21:01:07.164Z,98233.97
2023-05-16T21:03:33.572Z,98238.75
2023-05-16T21:06:00.441Z,98235.50
2023-05-16T21:08:26.779Z,98240.28
2023-05-16T21:10:53.408Z,98241.38
2023-05-16T21:13:19.765Z,98245.06
2023-05-16T21:15:46.106Z,98243.72
2023-05-16T21:18:12.501Z,98244.75
2023-05-16T21:20:39.025Z,98246.09
2023-05-16T21:23:05.396Z,98251.44
2023-05-16T21:25:31.719Z,98251.88
2023-05-16T21:27:58.276Z,98251.34
2023-05-16T21:30:24.642Z,98249.69
2023-05-16T21:32:51.150Z,98255.31
2023-05-16T21:35:17.534Z,98249.38
2023-05-16T21:37:43.875Z,98250.44
2023-05-16T21:40:10.276Z,98255.22
2023-05-16T21:45:23.706Z,98258.41
2023-05-16T21:47:50.116Z,98257.59
2023-05-16T21:50:16.756Z,98266.66
2023-05-16T21:52:43.153Z,98265.88
2023-05-16T21:55:09.465Z,98265.03
2023-05-16T21:57:35.852Z,98269.56
2023-05-16T22:00:02.704Z,98272.50
2023-05-16T22:02:29.124Z,98269.00
2023-05-16T22:04:55.595Z,98269.25
2023-05-16T22:07:22.132Z,98269.19
2023-05-16T22:09:48.712Z,98263.84
2023-05-16T22:12:15.311Z,98259.72
2023-05-16T22:14:41.819Z,98264.34
2023-05-16T22:17:08.227Z,98258.31
2023-05-16T22:19:34.605Z,98258.72
2023-05-16T22:22:00.991Z,98261.56
2023-05-16T22:24:27.382Z,98260.09
2023-05-16T22:26:53.933Z,98257.09
2023-05-16T22:29:20.268Z,98255.97
2023-05-16T22:31:47.037Z,98257.47
2023-05-16T22:34:14.489Z,98256.88
2023-05-16T22:36:40.961Z,98259.53
2023-05-16T22:39:07.363Z,98264.06
2023-05-16T22:41:33.675Z,98263.22
2023-05-16T22:44:00.047Z,98258.66
2023-05-16T22:46:26.452Z,98256.19
2023-05-16T22:48:52.827Z,98251.63
2023-05-16T22:51:19.279Z,98256.72
2023-05-16T22:53:45.669Z,98253.97
2023-05-16T22:56:12.049Z,98255.59
2023-05-16T22:58:38.381Z,98261.44
2023-05-16T23:01:04.743Z,98264.59
2023-05-16T23:03:31.187Z,98258.22
2023-05-16T23:05:57.574Z,98257.88
2023-05-16T23:08:24.047Z,98260.84
2023-05-16T23:10:50.334Z,98267.47
2023-05-16T23:13:17.009Z,98267.56
2023-05-16T23:15:43.366Z,98270.28
2023-05-16T23:18:09.887Z,98265.03
2023-05-16T23:20:36.282Z,98266.75
2023-05-16T23:23:02.682Z,98269.44
2023-05-16T23:25:29.688Z,98262.34
2023-05-16T23:27:56.200Z,98271.19
2023-05-16T23:30:22.610Z,98268.59
2023-05-16T23:32:48.921Z,98269.25
2023-05-16T23:35:15.291Z,98273.59
2023-05-16T23:37:41.804Z,98276.28
2023-05-16T23:40:08.210Z,98276.34
2023-05-16T23:42:34.550Z,98278.84
2023-05-16T23:45:00.923Z,98278.66
2023-05-16T23:47:27.402Z,98275.00
2023-05-16T23:49:53.751Z,98287.06
2023-05-16T23:52:20.149Z,98286.28
2023-05-16T23:54:46.473Z,98291.22
2023-05-16T23:57:13.049Z,98293.50
2023-05-16T23:59:39.421Z,98295.97
